sensor_id;sensor_type;location;lat;lon;timestamp;P1;durP1;ratioP1;P2;durP2;ratioP2
78799;SDS011;68148;55.328;86.106;2023-10-19T00:00:16;15.25;;;6.43;;
78799;SDS011;68148;55.328;86.106;2023-10-19T00:02:42;16.52;;;6.72;;
78799;SDS011;68148;55.328;86.106;2023-10-19T00:05:08;20.48;;;7.15;;
78799;SDS011;68148;55.328;86.106;2023-10-19T00:07:34;23.88;;;6.72;;
78799;SDS011;68148;55.328;86.106;2023-10-19T00:10:00;18.35;;;7.20;;
78799;SDS011;68148;55.328;86.106;2023-10-19T00:12:26;16.90;;;6.88;;
78799;SDS011;68148;55.328;86.106;2023-10-19T00:14:53;26.92;;;8.30;;
78799;SDS011;68148;55.328;86.106;2023-10-19T00:17:18;16.65;;;5.80;;
78799;SDS011;68148;55.328;86.106;2023-10-19T00:19:44;31.67;;;6.45;;
78799;SDS011;68148;55.328;86.106;2023-10-19T00:22:10;20.17;;;6.90;;
78799;SDS011;68148;55.328;86.106;2023-10-19T00:24:36;16.83;;;5.25;;
78799;SDS011;68148;55.328;86.106;2023-10-19T00:27:01;28.85;;;5.78;;
78799;SDS011;68148;55.328;86.106;2023-10-19T00:29:27;20.40;;;6.03;;
78799;SDS011;68148;55.328;86.106;2023-10-19T00:31:53;15.80;;;5.50;;
78799;SDS011;68148;55.328;86.106;2023-10-19T00:34:19;27.25;;;6.50;;
78799;SDS011;68148;55.328;86.106;2023-10-19T00:36:45;10.98;;;4.40;;
78799;SDS011;68148;55.328;86.106;2023-10-19T00:39:12;39.70;;;6.20;;
78799;SDS011;68148;55.328;86.106;2023-10-19T00:41:38;62.58;;;7.03;;
78799;SDS011;68148;55.328;86.106;2023-10-19T00:44:07;16.33;;;5.80;;
78799;SDS011;68148;55.328;86.106;2023-10-19T00:46:33;27.30;;;6.10;;
78799;SDS011;68148;55.328;86.106;2023-10-19T00:49:02;13.50;;;5.55;;
78799;SDS011;68148;55.328;86.106;2023-10-19T00:51:33;27.25;;;6.30;;
78799;SDS011;68148;55.328;86.106;2023-10-19T00:54:06;10.60;;;5.07;;
78799;SDS011;68148;55.328;86.106;2023-10-19T00:56:35;18.98;;;5.38;;
78799;SDS011;68148;55.328;86.106;2023-10-19T00:59:02;15.50;;;5.47;;
78799;SDS011;68148;55.328;86.106;2023-10-19T01:01:29;11.23;;;4.60;;
78799;SDS011;68148;55.328;86.106;2023-10-19T01:03:55;12.07;;;5.15;;
78799;SDS011;68148;55.328;86.106;2023-10-19T01:06:20;11.80;;;5.13;;
78799;SDS011;68148;55.328;86.106;2023-10-19T01:08:46;15.00;;;5.80;;
78799;SDS011;68148;55.328;86.106;2023-10-19T01:11:13;13.25;;;6.05;;
78799;SDS011;68148;55.328;86.106;2023-10-19T01:13:39;11.40;;;5.40;;
78799;SDS011;68148;55.328;86.106;2023-10-19T01:16:05;15.77;;;5.68;;
78799;SDS011;68148;55.328;86.106;2023-10-19T01:18:36;15.45;;;5.32;;
78799;SDS011;68148;55.328;86.106;2023-10-19T01:21:02;12.40;;;5.25;;
78799;SDS011;68148;55.328;86.106;2023-10-19T01:23:28;14.90;;;5.40;;
78799;SDS011;68148;55.328;86.106;2023-10-19T01:25:54;11.55;;;4.95;;
78799;SDS011;68148;55.328;86.106;2023-10-19T01:28:22;11.02;;;5.20;;
78799;SDS011;68148;55.328;86.106;2023-10-19T01:30:48;22.08;;;6.15;;
78799;SDS011;68148;55.328;86.106;2023-10-19T01:33:15;16.83;;;5.03;;
78799;SDS011;68148;55.328;86.106;2023-10-19T01:35:44;11.00;;;5.13;;
78799;SDS011;68148;55.328;86.106;2023-10-19T01:38:10;12.82;;;5.93;;
78799;SDS011;68148;55.328;86.106;2023-10-19T01:40:36;12.05;;;5.35;;
78799;SDS011;68148;55.328;86.106;2023-10-19T01:43:01;12.57;;;4.72;;
78799;SDS011;68148;55.328;86.106;2023-10-19T01:45:27;13.45;;;5.45;;
78799;SDS011;68148;55.328;86.106;2023-10-19T01:47:53;12.57;;;5.60;;
78799;SDS011;68148;55.328;86.106;2023-10-19T01:50:19;14.75;;;6.30;;
78799;SDS011;68148;55.328;86.106;2023-10-19T01:52:46;20.30;;;6.00;;
78799;SDS011;68148;55.328;86.106;2023-10-19T01:55:11;16.25;;;5.68;;
78799;SDS011;68148;55.328;86.106;2023-10-19T01:57:37;18.58;;;5.80;;
78799;SDS011;68148;55.328;86.106;2023-10-19T02:00:03;16.45;;;5.78;;
78799;SDS011;68148;55.328;86.106;2023-10-19T02:02:30;14.30;;;5.13;;
78799;SDS011;68148;55.328;86.106;2023-10-19T02:04:56;11.98;;;4.95;;
78799;SDS011;68148;55.328;86.106;2023-10-19T02:07:22;12.45;;;4.95;;
78799;SDS011;68148;55.328;86.106;2023-10-19T02:09:48;11.13;;;5.35;;
78799;SDS011;68148;55.328;86.106;2023-10-19T02:12:13;14.55;;;5.70;;
78799;SDS011;68148;55.328;86.106;2023-10-19T02:14:39;11.20;;;5.60;;
78799;SDS011;68148;55.328;86.106;2023-10-19T02:17:05;20.88;;;7.63;;
78799;SDS011;68148;55.328;86.106;2023-10-19T02:19:30;23.77;;;9.25;;
78799;SDS011;68148;55.328;86.106;2023-10-19T02:21:57;18.73;;;6.45;;
78799;SDS011;68148;55.328;86.106;2023-10-19T02:24:25;13.55;;;5.90;;
78799;SDS011;68148;55.328;86.106;2023-10-19T02:26:52;12.70;;;5.97;;
78799;SDS011;68148;55.328;86.106;2023-10-19T02:29:19;15.20;;;6.07;;
78799;SDS011;68148;55.328;86.106;2023-10-19T02:31:45;18.55;;;6.72;;
78799;SDS011;68148;55.328;86.106;2023-10-19T02:34:11;15.50;;;5.47;;
78799;SDS011;68148;55.328;86.106;2023-10-19T02:36:38;14.40;;;6.45;;
78799;SDS011;68148;55.328;86.106;2023-10-19T02:39:05;12.73;;;5.25;;
78799;SDS011;68148;55.328;86.106;2023-10-19T02:41:44;15.85;;;6.05;;
78799;SDS011;68148;55.328;86.106;2023-10-19T02:44:11;14.43;;;5.88;;
78799;SDS011;68148;55.328;86.106;2023-10-19T02:46:38;13.10;;;4.85;;
78799;SDS011;68148;55.328;86.106;2023-10-19T02:49:05;15.32;;;6.53;;
78799;SDS011;68148;55.328;86.106;2023-10-19T02:51:32;14.35;;;5.97;;
78799;SDS011;68148;55.328;86.106;2023-10-19T02:53:57;15.80;;;6.00;;
78799;SDS011;68148;55.328;86.106;2023-10-19T02:56:23;17.42;;;7.07;;
78799;SDS011;68148;55.328;86.106;2023-10-19T02:58:50;15.85;;;6.28;;
78799;SDS011;68148;55.328;86.106;2023-10-19T03:01:17;16.20;;;6.78;;
78799;SDS011;68148;55.328;86.106;2023-10-19T03:03:45;15.45;;;6.43;;
78799;SDS011;68148;55.328;86.106;2023-10-19T03:06:10;16.00;;;7.10;;
78799;SDS011;68148;55.328;86.106;2023-10-19T03:08:36;20.95;;;7.55;;
78799;SDS011;68148;55.328;86.106;2023-10-19T03:11:02;17.10;;;7.22;;
78799;SDS011;68148;55.328;86.106;2023-10-19T03:13:28;15.95;;;7.03;;
78799;SDS011;68148;55.328;86.106;2023-10-19T03:15:53;18.50;;;7.35;;
78799;SDS011;68148;55.328;86.106;2023-10-19T03:18:19;16.20;;;7.15;;
78799;SDS011;68148;55.328;86.106;2023-10-19T03:20:45;23.73;;;7.45;;
78799;SDS011;68148;55.328;86.106;2023-10-19T03:23:11;20.75;;;7.47;;
78799;SDS011;68148;55.328;86.106;2023-10-19T03:25:37;16.77;;;6.40;;
78799;SDS011;68148;55.328;86.106;2023-10-19T03:28:03;23.42;;;8.18;;
78799;SDS011;68148;55.328;86.106;2023-10-19T03:30:28;26.13;;;7.93;;
78799;SDS011;68148;55.328;86.106;2023-10-19T03:32:56;21.40;;;8.75;;
78799;SDS011;68148;55.328;86.106;2023-10-19T03:35:22;21.33;;;8.85;;
78799;SDS011;68148;55.328;86.106;2023-10-19T03:37:47;21.30;;;8.63;;
78799;SDS011;68148;55.328;86.106;2023-10-19T03:40:15;22.30;;;8.10;;
78799;SDS011;68148;55.328;86.106;2023-10-19T03:42:41;21.05;;;7.72;;
78799;SDS011;68148;55.328;86.106;2023-10-19T03:45:07;19.95;;;7.75;;
78799;SDS011;68148;55.328;86.106;2023-10-19T03:47:33;18.48;;;7.38;;
78799;SDS011;68148;55.328;86.106;2023-10-19T03:50:00;28.35;;;8.60;;
78799;SDS011;68148;55.328;86.106;2023-10-19T03:52:26;27.80;;;8.45;;
78799;SDS011;68148;55.328;86.106;2023-10-19T03:54:52;18.23;;;7.53;;
78799;SDS011;68148;55.328;86.106;2023-10-19T03:57:18;17.80;;;8.38;;
78799;SDS011;68148;55.328;86.106;2023-10-19T03:59:44;24.38;;;8.27;;
78799;SDS011;68148;55.328;86.106;2023-10-19T04:02:11;20.25;;;6.10;;
78799;SDS011;68148;55.328;86.106;2023-10-19T04:04:37;17.92;;;6.55;;
78799;SDS011;68148;55.328;86.106;2023-10-19T04:07:02;18.13;;;6.80;;
78799;SDS011;68148;55.328;86.106;2023-10-19T04:09:29;23.00;;;7.68;;
78799;SDS011;68148;55.328;86.106;2023-10-19T04:11:55;17.92;;;7.88;;
78799;SDS011;68148;55.328;86.106;2023-10-19T04:14:21;19.13;;;7.75;;
78799;SDS011;68148;55.328;86.106;2023-10-19T04:16:47;22.20;;;6.88;;
78799;SDS011;68148;55.328;86.106;2023-10-19T04:19:13;17.05;;;7.55;;
78799;SDS011;68148;55.328;86.106;2023-10-19T04:21:38;15.40;;;7.97;;
78799;SDS011;68148;55.328;86.106;2023-10-19T04:24:05;15.63;;;8.05;;
78799;SDS011;68148;55.328;86.106;2023-10-19T04:26:31;20.67;;;8.07;;
78799;SDS011;68148;55.328;86.106;2023-10-19T04:28:59;20.17;;;7.97;;
78799;SDS011;68148;55.328;86.106;2023-10-19T04:31:24;19.98;;;8.23;;
78799;SDS011;68148;55.328;86.106;2023-10-19T04:33:50;25.70;;;7.78;;
78799;SDS011;68148;55.328;86.106;2023-10-19T04:36:16;18.25;;;7.88;;
78799;SDS011;68148;55.328;86.106;2023-10-19T04:38:42;21.15;;;8.95;;
78799;SDS011;68148;55.328;86.106;2023-10-19T04:41:19;17.40;;;8.15;;
78799;SDS011;68148;55.328;86.106;2023-10-19T04:43:45;19.38;;;7.07;;
78799;SDS011;68148;55.328;86.106;2023-10-19T04:46:11;18.77;;;8.68;;
78799;SDS011;68148;55.328;86.106;2023-10-19T04:48:40;19.40;;;7.45;;
78799;SDS011;68148;55.328;86.106;2023-10-19T04:51:06;21.17;;;7.75;;
78799;SDS011;68148;55.328;86.106;2023-10-19T04:53:32;24.67;;;8.70;;
78799;SDS011;68148;55.328;86.106;2023-10-19T04:55:59;19.08;;;8.25;;
78799;SDS011;68148;55.328;86.106;2023-10-19T04:58:24;23.55;;;8.82;;
78799;SDS011;68148;55.328;86.106;2023-10-19T05:00:50;25.35;;;9.63;;
78799;SDS011;68148;55.328;86.106;2023-10-19T05:03:17;19.23;;;8.30;;
78799;SDS011;68148;55.328;86.106;2023-10-19T05:05:43;21.92;;;8.35;;
78799;SDS011;68148;55.328;86.106;2023-10-19T05:08:09;18.27;;;8.48;;
78799;SDS011;68148;55.328;86.106;2023-10-19T05:10:34;18.08;;;7.85;;
78799;SDS011;68148;55.328;86.106;2023-10-19T05:13:05;18.98;;;8.60;;
78799;SDS011;68148;55.328;86.106;2023-10-19T05:15:31;22.80;;;7.85;;
78799;SDS011;68148;55.328;86.106;2023-10-19T05:17:57;21.80;;;8.02;;
78799;SDS011;68148;55.328;86.106;2023-10-19T05:20:22;20.63;;;7.75;;
78799;SDS011;68148;55.328;86.106;2023-10-19T05:22:49;23.05;;;8.00;;
78799;SDS011;68148;55.328;86.106;2023-10-19T05:25:15;22.90;;;8.18;;
78799;SDS011;68148;55.328;86.106;2023-10-19T05:27:41;20.05;;;7.68;;
78799;SDS011;68148;55.328;86.106;2023-10-19T05:30:07;21.65;;;7.85;;
78799;SDS011;68148;55.328;86.106;2023-10-19T05:32:33;19.33;;;7.03;;
78799;SDS011;68148;55.328;86.106;2023-10-19T05:34:59;23.10;;;7.70;;
78799;SDS011;68148;55.328;86.106;2023-10-19T05:37:25;24.48;;;7.97;;
78799;SDS011;68148;55.328;86.106;2023-10-19T05:39:50;19.45;;;7.40;;
78799;SDS011;68148;55.328;86.106;2023-10-19T05:42:16;16.33;;;7.32;;
78799;SDS011;68148;55.328;86.106;2023-10-19T05:44:43;20.83;;;6.78;;
78799;SDS011;68148;55.328;86.106;2023-10-19T05:47:08;20.90;;;6.97;;
78799;SDS011;68148;55.328;86.106;2023-10-19T05:49:34;13.55;;;6.28;;
78799;SDS011;68148;55.328;86.106;2023-10-19T05:52:00;13.77;;;5.70;;
78799;SDS011;68148;55.328;86.106;2023-10-19T05:54:26;12.05;;;5.32;;
78799;SDS011;68148;55.328;86.106;2023-10-19T05:56:52;14.40;;;5.28;;
78799;SDS011;68148;55.328;86.106;2023-10-19T05:59:18;11.63;;;4.65;;
78799;SDS011;68148;55.328;86.106;2023-10-19T06:01:44;12.75;;;5.22;;
78799;SDS011;68148;55.328;86.106;2023-10-19T06:04:10;16.23;;;5.32;;
78799;SDS011;68148;55.328;86.106;2023-10-19T06:06:35;15.13;;;4.90;;
78799;SDS011;68148;55.328;86.106;2023-10-19T06:09:07;11.48;;;4.32;;
78799;SDS011;68148;55.328;86.106;2023-10-19T06:11:33;13.48;;;4.85;;
78799;SDS011;68148;55.328;86.106;2023-10-19T06:14:00;13.52;;;4.45;;
78799;SDS011;68148;55.328;86.106;2023-10-19T06:16:26;11.18;;;4.05;;
78799;SDS011;68148;55.328;86.106;2023-10-19T06:18:51;9.00;;;3.63;;
78799;SDS011;68148;55.328;86.106;2023-10-19T06:21:17;11.13;;;4.38;;
78799;SDS011;68148;55.328;86.106;2023-10-19T06:23:43;12.85;;;4.25;;
78799;SDS011;68148;55.328;86.106;2023-10-19T06:26:12;11.45;;;3.97;;
78799;SDS011;68148;55.328;86.106;2023-10-19T06:28:39;10.95;;;3.83;;
78799;SDS011;68148;55.328;86.106;2023-10-19T06:31:04;9.98;;;3.83;;
78799;SDS011;68148;55.328;86.106;2023-10-19T06:33:30;15.70;;;3.70;;
78799;SDS011;68148;55.328;86.106;2023-10-19T06:35:56;7.65;;;3.40;;
78799;SDS011;68148;55.328;86.106;2023-10-19T06:38:22;12.68;;;4.20;;
78799;SDS011;68148;55.328;86.106;2023-10-19T06:40:48;11.65;;;4.20;;
78799;SDS011;68148;55.328;86.106;2023-10-19T06:43:13;11.60;;;4.30;;
78799;SDS011;68148;55.328;86.106;2023-10-19T06:45:39;12.50;;;4.93;;
78799;SDS011;68148;55.328;86.106;2023-10-19T06:48:05;13.23;;;4.00;;
78799;SDS011;68148;55.328;86.106;2023-10-19T06:50:31;11.15;;;4.35;;
78799;SDS011;68148;55.328;86.106;2023-10-19T06:52:57;8.80;;;3.78;;
78799;SDS011;68148;55.328;86.106;2023-10-19T06:55:23;11.60;;;3.40;;
78799;SDS011;68148;55.328;86.106;2023-10-19T06:57:49;12.15;;;3.47;;
78799;SDS011;68148;55.328;86.106;2023-10-19T07:00:17;9.65;;;3.80;;
78799;SDS011;68148;55.328;86.106;2023-10-19T07:02:44;10.77;;;3.75;;
78799;SDS011;68148;55.328;86.106;2023-10-19T07:05:11;14.70;;;3.63;;
78799;SDS011;68148;55.328;86.106;2023-10-19T07:07:40;16.23;;;3.97;;
78799;SDS011;68148;55.328;86.106;2023-10-19T07:10:09;12.98;;;4.00;;
78799;SDS011;68148;55.328;86.106;2023-10-19T07:12:36;10.23;;;3.08;;
78799;SDS011;68148;55.328;86.106;2023-10-19T07:15:03;10.30;;;3.70;;
78799;SDS011;68148;55.328;86.106;2023-10-19T07:17:30;11.48;;;3.78;;
78799;SDS011;68148;55.328;86.106;2023-10-19T07:19:56;9.30;;;3.33;;
78799;SDS011;68148;55.328;86.106;2023-10-19T07:22:21;15.15;;;3.25;;
78799;SDS011;68148;55.328;86.106;2023-10-19T07:24:47;10.15;;;3.17;;
78799;SDS011;68148;55.328;86.106;2023-10-19T07:27:13;9.80;;;3.38;;
78799;SDS011;68148;55.328;86.106;2023-10-19T07:29:39;7.45;;;2.35;;
78799;SDS011;68148;55.328;86.106;2023-10-19T07:32:05;13.68;;;3.13;;
78799;SDS011;68148;55.328;86.106;2023-10-19T07:34:31;8.57;;;3.05;;
78799;SDS011;68148;55.328;86.106;2023-10-19T07:36:58;16.83;;;2.80;;
78799;SDS011;68148;55.328;86.106;2023-10-19T07:39:24;8.88;;;2.47;;
78799;SDS011;68148;55.328;86.106;2023-10-19T07:41:50;7.65;;;2.47;;
78799;SDS011;68148;55.328;86.106;2023-10-19T07:44:16;8.73;;;2.90;;
78799;SDS011;68148;55.328;86.106;2023-10-19T07:46:42;7.32;;;2.58;;
78799;SDS011;68148;55.328;86.106;2023-10-19T07:49:08;10.10;;;2.88;;
78799;SDS011;68148;55.328;86.106;2023-10-19T07:51:33;6.57;;;3.00;;
78799;SDS011;68148;55.328;86.106;2023-10-19T07:53:59;6.03;;;2.28;;
78799;SDS011;68148;55.328;86.106;2023-10-19T07:56:25;9.70;;;2.83;;
78799;SDS011;68148;55.328;86.106;2023-10-19T07:58:50;8.20;;;2.42;;
78799;SDS011;68148;55.328;86.106;2023-10-19T08:01:16;9.45;;;2.42;;
78799;SDS011;68148;55.328;86.106;2023-10-19T08:03:42;7.10;;;2.40;;
78799;SDS011;68148;55.328;86.106;2023-10-19T08:06:08;7.38;;;2.35;;
78799;SDS011;68148;55.328;86.106;2023-10-19T08:08:39;14.85;;;2.30;;
78799;SDS011;68148;55.328;86.106;2023-10-19T08:11:05;7.20;;;2.53;;
78799;SDS011;68148;55.328;86.106;2023-10-19T08:13:31;7.47;;;2.25;;
78799;SDS011;68148;55.328;86.106;2023-10-19T08:15:56;5.35;;;2.47;;
78799;SDS011;68148;55.328;86.106;2023-10-19T08:18:22;6.05;;;1.98;;
78799;SDS011;68148;55.328;86.106;2023-10-19T08:20:48;8.77;;;2.50;;
78799;SDS011;68148;55.328;86.106;2023-10-19T08:23:14;8.55;;;2.40;;
78799;SDS011;68148;55.328;86.106;2023-10-19T08:25:40;11.10;;;2.47;;
78799;SDS011;68148;55.328;86.106;2023-10-19T08:28:08;8.35;;;2.28;;
78799;SDS011;68148;55.328;86.106;2023-10-19T08:30:34;6.10;;;2.00;;
78799;SDS011;68148;55.328;86.106;2023-10-19T08:33:00;7.60;;;1.90;;
78799;SDS011;68148;55.328;86.106;2023-10-19T08:35:25;8.20;;;1.60;;
78799;SDS011;68148;55.328;86.106;2023-10-19T08:37:52;3.58;;;1.58;;
78799;SDS011;68148;55.328;86.106;2023-10-19T08:40:19;7.68;;;1.55;;
78799;SDS011;68148;55.328;86.106;2023-10-19T08:42:49;5.00;;;1.48;;
78799;SDS011;68148;55.328;86.106;2023-10-19T08:45:15;4.80;;;1.27;;
78799;SDS011;68148;55.328;86.106;2023-10-19T08:50:24;3.65;;;1.20;;
78799;SDS011;68148;55.328;86.106;2023-10-19T08:52:55;5.97;;;1.45;;
78799;SDS011;68148;55.328;86.106;2023-10-19T08:55:29;6.55;;;1.77;;
78799;SDS011;68148;55.328;86.106;2023-10-19T08:57:56;9.75;;;2.25;;
78799;SDS011;68148;55.328;86.106;2023-10-19T09:00:21;7.18;;;1.45;;
78799;SDS011;68148;55.328;86.106;2023-10-19T09:02:47;5.70;;;1.70;;
78799;SDS011;68148;55.328;86.106;2023-10-19T09:05:14;7.75;;;1.63;;
78799;SDS011;68148;55.328;86.106;2023-10-19T09:07:39;11.00;;;1.63;;
78799;SDS011;68148;55.328;86.106;2023-10-19T09:10:05;5.72;;;1.60;;
78799;SDS011;68148;55.328;86.106;2023-10-19T09:12:32;6.10;;;2.03;;
78799;SDS011;68148;55.328;86.106;2023-10-19T09:14:58;5.47;;;1.55;;
78799;SDS011;68148;55.328;86.106;2023-10-19T09:17:27;6.97;;;1.63;;
78799;SDS011;68148;55.328;86.106;2023-10-19T09:19:53;5.05;;;1.20;;
78799;SDS011;68148;55.328;86.106;2023-10-19T09:22:19;10.88;;;1.80;;
78799;SDS011;68148;55.328;86.106;2023-10-19T09:24:45;4.25;;;1.23;;
78799;SDS011;68148;55.328;86.106;2023-10-19T09:27:11;19.88;;;2.15;;
78799;SDS011;68148;55.328;86.106;2023-10-19T09:29:42;6.13;;;1.30;;
78799;SDS011;68148;55.328;86.106;2023-10-19T09:32:08;16.02;;;3.88;;
78799;SDS011;68148;55.328;86.106;2023-10-19T09:34:40;5.97;;;1.83;;
78799;SDS011;68148;55.328;86.106;2023-10-19T09:37:06;4.57;;;1.45;;
78799;SDS011;68148;55.328;86.106;2023-10-19T09:39:32;8.57;;;1.73;;
78799;SDS011;68148;55.328;86.106;2023-10-19T09:41:59;6.57;;;1.15;;
78799;SDS011;68148;55.328;86.106;2023-10-19T09:44:25;5.07;;;1.40;;
78799;SDS011;68148;55.328;86.106;2023-10-19T09:46:53;8.30;;;1.63;;
78799;SDS011;68148;55.328;86.106;2023-10-19T09:49:24;3.95;;;1.40;;
78799;SDS011;68148;55.328;86.106;2023-10-19T09:51:50;3.70;;;1.10;;
78799;SDS011;68148;55.328;86.106;2023-10-19T09:54:26;3.67;;;1.35;;
78799;SDS011;68148;55.328;86.106;2023-10-19T09:57:01;8.45;;;1.55;;
78799;SDS011;68148;55.328;86.106;2023-10-19T09:59:36;13.18;;;2.15;;
78799;SDS011;68148;55.328;86.106;2023-10-19T10:02:07;7.18;;;1.67;;
78799;SDS011;68148;55.328;86.106;2023-10-19T10:04:34;9.68;;;2.10;;
78799;SDS011;68148;55.328;86.106;2023-10-19T10:07:00;8.13;;;1.63;;
78799;SDS011;68148;55.328;86.106;2023-10-19T10:09:30;6.25;;;1.40;;
78799;SDS011;68148;55.328;86.106;2023-10-19T10:11:56;4.18;;;1.48;;
78799;SDS011;68148;55.328;86.106;2023-10-19T10:15:00;5.70;;;1.30;;
78799;SDS011;68148;55.328;86.106;2023-10-19T10:17:28;6.85;;;1.27;;
78799;SDS011;68148;55.328;86.106;2023-10-19T10:19:54;4.38;;;1.58;;
78799;SDS011;68148;55.328;86.106;2023-10-19T10:22:40;5.60;;;1.35;;
78799;SDS011;68148;55.328;86.106;2023-10-19T10:25:07;6.90;;;1.80;;
78799;SDS011;68148;55.328;86.106;2023-10-19T10:27:50;6.00;;;1.40;;
78799;SDS011;68148;55.328;86.106;2023-10-19T10:30:16;5.20;;;1.27;;
78799;SDS011;68148;55.328;86.106;2023-10-19T10:32:47;5.22;;;1.38;;
78799;SDS011;68148;55.328;86.106;2023-10-19T10:38:07;3.55;;;1.42;;
78799;SDS011;68148;55.328;86.106;2023-10-19T10:40:44;3.85;;;1.40;;
78799;SDS011;68148;55.328;86.106;2023-10-19T10:43:14;11.25;;;1.70;;
78799;SDS011;68148;55.328;86.106;2023-10-19T10:45:44;4.63;;;1.40;;
78799;SDS011;68148;55.328;86.106;2023-10-19T10:48:11;7.07;;;2.45;;
78799;SDS011;68148;55.328;86.106;2023-10-19T10:50:40;6.03;;;1.58;;
78799;SDS011;68148;55.328;86.106;2023-10-19T10:53:06;10.25;;;1.38;;
78799;SDS011;68148;55.328;86.106;2023-10-19T10:55:41;9.10;;;1.67;;
78799;SDS011;68148;55.328;86.106;2023-10-19T10:58:14;10.40;;;2.03;;
78799;SDS011;68148;55.328;86.106;2023-10-19T11:00:44;15.27;;;1.63;;
78799;SDS011;68148;55.328;86.106;2023-10-19T11:03:10;8.30;;;1.45;;
78799;SDS011;68148;55.328;86.106;2023-10-19T11:05:38;9.13;;;1.80;;
78799;SDS011;68148;55.328;86.106;2023-10-19T11:10:43;11.57;;;2.42;;
78799;SDS011;68148;55.328;86.106;2023-10-19T11:13:10;11.85;;;2.50;;
78799;SDS011;68148;55.328;86.106;2023-10-19T11:15:56;10.60;;;2.50;;
78799;SDS011;68148;55.328;86.106;2023-10-19T11:21:00;7.07;;;2.40;;
78799;SDS011;68148;55.328;86.106;2023-10-19T11:23:34;10.45;;;2.47;;
78799;SDS011;68148;55.328;86.106;2023-10-19T11:26:01;14.85;;;2.95;;
78799;SDS011;68148;55.328;86.106;2023-10-19T11:28:28;14.32;;;4.00;;
78799;SDS011;68148;55.328;86.106;2023-10-19T11:30:54;7.95;;;2.42;;
78799;SDS011;68148;55.328;86.106;2023-10-19T11:33:19;10.63;;;2.60;;
78799;SDS011;68148;55.328;86.106;2023-10-19T11:35:45;8.02;;;2.08;;
78799;SDS011;68148;55.328;86.106;2023-10-19T11:38:11;8.50;;;2.25;;
78799;SDS011;68148;55.328;86.106;2023-10-19T11:40:37;7.63;;;1.95;;
78799;SDS011;68148;55.328;86.106;2023-10-19T11:43:03;7.97;;;2.03;;
78799;SDS011;68148;55.328;86.106;2023-10-19T11:45:29;13.60;;;3.17;;
78799;SDS011;68148;55.328;86.106;2023-10-19T11:47:55;13.75;;;2.13;;
78799;SDS011;68148;55.328;86.106;2023-10-19T11:50:20;10.32;;;1.77;;
78799;SDS011;68148;55.328;86.106;2023-10-19T11:52:46;7.47;;;1.65;;
78799;SDS011;68148;55.328;86.106;2023-10-19T11:55:12;12.02;;;2.83;;
78799;SDS011;68148;55.328;86.106;2023-10-19T11:57:38;13.35;;;1.95;;
78799;SDS011;68148;55.328;86.106;2023-10-19T12:00:05;10.13;;;2.13;;
78799;SDS011;68148;55.328;86.106;2023-10-19T12:02:31;7.70;;;1.92;;
78799;SDS011;68148;55.328;86.106;2023-10-19T12:04:57;5.93;;;2.03;;
78799;SDS011;68148;55.328;86.106;2023-10-19T12:07:23;23.17;;;2.67;;
78799;SDS011;68148;55.328;86.106;2023-10-19T12:09:50;7.95;;;1.70;;
78799;SDS011;68148;55.328;86.106;2023-10-19T12:12:16;7.32;;;1.95;;
78799;SDS011;68148;55.328;86.106;2023-10-19T12:14:42;10.80;;;2.35;;
78799;SDS011;68148;55.328;86.106;2023-10-19T12:17:08;9.55;;;1.80;;
78799;SDS011;68148;55.328;86.106;2023-10-19T12:19:33;9.77;;;2.13;;
78799;SDS011;68148;55.328;86.106;2023-10-19T12:21:59;6.35;;;1.92;;
78799;SDS011;68148;55.328;86.106;2023-10-19T12:24:25;10.88;;;2.58;;
78799;SDS011;68148;55.328;86.106;2023-10-19T12:26:51;8.90;;;2.22;;
78799;SDS011;68148;55.328;86.106;2023-10-19T12:29:17;7.40;;;2.45;;
78799;SDS011;68148;55.328;86.106;2023-10-19T12:31:43;8.10;;;2.20;;
78799;SDS011;68148;55.328;86.106;2023-10-19T12:34:10;12.40;;;2.40;;
78799;SDS011;68148;55.328;86.106;2023-10-19T12:36:35;11.40;;;2.10;;
78799;SDS011;68148;55.328;86.106;2023-10-19T12:39:01;9.68;;;2.60;;
78799;SDS011;68148;55.328;86.106;2023-10-19T12:41:27;9.20;;;2.58;;
78799;SDS011;68148;55.328;86.106;2023-10-19T12:43:53;8.65;;;2.17;;
78799;SDS011;68148;55.328;86.106;2023-10-19T12:46:19;12.60;;;2.65;;
78799;SDS011;68148;55.328;86.106;2023-10-19T12:48:49;9.82;;;2.38;;
78799;SDS011;68148;55.328;86.106;2023-10-19T12:51:14;11.15;;;2.30;;
78799;SDS011;68148;55.328;86.106;2023-10-19T12:53:40;16.50;;;2.60;;
78799;SDS011;68148;55.328;86.106;2023-10-19T12:56:06;9.30;;;2.40;;
78799;SDS011;68148;55.328;86.106;2023-10-19T12:58:32;8.60;;;2.38;;
78799;SDS011;68148;55.328;86.106;2023-10-19T13:00:58;11.80;;;2.15;;
78799;SDS011;68148;55.328;86.106;2023-10-19T13:03:24;7.40;;;2.28;;
78799;SDS011;68148;55.328;86.106;2023-10-19T13:05:50;20.08;;;2.75;;
78799;SDS011;68148;55.328;86.106;2023-10-19T13:08:15;9.65;;;2.28;;
78799;SDS011;68148;55.328;86.106;2023-10-19T13:10:42;12.32;;;2.50;;
78799;SDS011;68148;55.328;86.106;2023-10-19T13:13:09;10.05;;;2.30;;
78799;SDS011;68148;55.328;86.106;2023-10-19T13:15:40;13.60;;;2.03;;
78799;SDS011;68148;55.328;86.106;2023-10-19T13:18:07;13.52;;;2.60;;
78799;SDS011;68148;55.328;86.106;2023-10-19T13:20:34;11.02;;;3.28;;
78799;SDS011;68148;55.328;86.106;2023-10-19T13:23:05;13.77;;;3.08;;
78799;SDS011;68148;55.328;86.106;2023-10-19T13:25:33;19.05;;;2.90;;
78799;SDS011;68148;55.328;86.106;2023-10-19T13:27:59;8.48;;;2.50;;
78799;SDS011;68148;55.328;86.106;2023-10-19T13:30:24;9.60;;;2.38;;
78799;SDS011;68148;55.328;86.106;2023-10-19T13:32:50;14.38;;;2.90;;
78799;SDS011;68148;55.328;86.106;2023-10-19T13:35:16;9.20;;;2.45;;
78799;SDS011;68148;55.328;86.106;2023-10-19T13:37:42;9.13;;;1.98;;
78799;SDS011;68148;55.328;86.106;2023-10-19T13:40:08;6.72;;;2.13;;
78799;SDS011;68148;55.328;86.106;2023-10-19T13:42:34;7.40;;;2.08;;
78799;SDS011;68148;55.328;86.106;2023-10-19T13:45:20;14.30;;;2.15;;
78799;SDS011;68148;55.328;86.106;2023-10-19T13:47:45;13.93;;;1.92;;
78799;SDS011;68148;55.328;86.106;2023-10-19T13:50:11;5.40;;;1.83;;
78799;SDS011;68148;55.328;86.106;2023-10-19T13:52:37;5.43;;;1.80;;
78799;SDS011;68148;55.328;86.106;2023-10-19T13:55:02;5.38;;;1.90;;
78799;SDS011;68148;55.328;86.106;2023-10-19T13:57:28;8.35;;;2.10;;
78799;SDS011;68148;55.328;86.106;2023-10-19T13:59:54;7.70;;;2.42;;
78799;SDS011;68148;55.328;86.106;2023-10-19T14:02:20;7.22;;;2.10;;
78799;SDS011;68148;55.328;86.106;2023-10-19T14:04:49;10.18;;;2.10;;
78799;SDS011;68148;55.328;86.106;2023-10-19T14:07:15;13.20;;;2.30;;
78799;SDS011;68148;55.328;86.106;2023-10-19T14:09:41;10.25;;;1.98;;
78799;SDS011;68148;55.328;86.106;2023-10-19T14:12:06;6.10;;;2.28;;
78799;SDS011;68148;55.328;86.106;2023-10-19T14:14:35;7.97;;;2.80;;
78799;SDS011;68148;55.328;86.106;2023-10-19T14:17:01;9.00;;;2.70;;
78799;SDS011;68148;55.328;86.106;2023-10-19T14:19:27;14.48;;;2.53;;
78799;SDS011;68148;55.328;86.106;2023-10-19T14:21:53;10.88;;;2.63;;
78799;SDS011;68148;55.328;86.106;2023-10-19T14:24:19;10.88;;;3.22;;
78799;SDS011;68148;55.328;86.106;2023-10-19T14:26:45;11.85;;;2.72;;
78799;SDS011;68148;55.328;86.106;2023-10-19T14:29:11;12.20;;;2.72;;
78799;SDS011;68148;55.328;86.106;2023-10-19T14:31:40;13.27;;;3.15;;
78799;SDS011;68148;55.328;86.106;2023-10-19T14:34:06;14.10;;;3.85;;